sensor_id;sensor_type;location;lat;lon;timestamp;P1;durP1;ratioP1;P2;durP2;ratioP2
51066;SDS011;37112;45.892;-123.962;2023-12-20T00:00:30;42.90;;;6.10;;
51066;SDS011;37112;45.892;-123.962;2023-12-20T00:03:16;27.50;;;5.50;;
51066;SDS011;37112;45.892;-123.962;2023-12-20T00:05:46;38.30;;;6.50;;
51066;SDS011;37112;45.892;-123.962;2023-12-20T00:08:17;38.60;;;6.80;;
51066;SDS011;37112;45.892;-123.962;2023-12-20T00:10:48;60.90;;;11.70;;
51066;SDS011;37112;45.892;-123.962;2023-12-20T00:13:18;56.60;;;7.10;;
51066;SDS011;37112;45.892;-123.962;2023-12-20T00:15:48;43.80;;;7.70;;
51066;SDS011;37112;45.892;-123.962;2023-12-20T00:18:19;51.10;;;9.20;;
51066;SDS011;37112;45.892;-123.962;2023-12-20T00:20:49;51.10;;;7.60;;
51066;SDS011;37112;45.892;-123.962;2023-12-20T00:23:20;41.10;;;7.80;;
51066;SDS011;37112;45.892;-123.962;2023-12-20T00:25:50;44.40;;;8.00;;
51066;SDS011;37112;45.892;-123.962;2023-12-20T00:28:21;44.00;;;6.90;;
51066;SDS011;37112;45.892;-123.962;2023-12-20T00:30:51;31.70;;;5.60;;
51066;SDS011;37112;45.892;-123.962;2023-12-20T00:33:21;29.60;;;7.40;;
51066;SDS011;37112;45.892;-123.962;2023-12-20T00:35:52;26.10;;;4.20;;
51066;SDS011;37112;45.892;-123.962;2023-12-20T00:38:10;29.90;;;6.00;;
51066;SDS011;37112;45.892;-123.962;2023-12-20T00:40:40;42.50;;;6.70;;
51066;SDS011;37112;45.892;-123.962;2023-12-20T00:43:10;54.10;;;8.80;;
51066;SDS011;37112;45.892;-123.962;2023-12-20T00:45:41;47.50;;;7.30;;
51066;SDS011;37112;45.892;-123.962;2023-12-20T00:48:11;48.30;;;6.80;;
51066;SDS011;37112;45.892;-123.962;2023-12-20T00:50:41;37.00;;;7.40;;
51066;SDS011;37112;45.892;-123.962;2023-12-20T00:53:12;34.20;;;6.70;;
51066;SDS011;37112;45.892;-123.962;2023-12-20T00:55:42;30.20;;;5.40;;
51066;SDS011;37112;45.892;-123.962;2023-12-20T00:58:13;28.60;;;5.90;;
51066;SDS011;37112;45.892;-123.962;2023-12-20T01:00:43;27.60;;;6.00;;
51066;SDS011;37112;45.892;-123.962;2023-12-20T01:03:13;37.90;;;7.30;;
51066;SDS011;37112;45.892;-123.962;2023-12-20T01:05:44;31.90;;;6.10;;
51066;SDS011;37112;45.892;-123.962;2023-12-20T01:08:14;24.00;;;5.70;;
51066;SDS011;37112;45.892;-123.962;2023-12-20T01:10:44;40.70;;;5.60;;
51066;SDS011;37112;45.892;-123.962;2023-12-20T01:13:14;23.20;;;5.30;;
51066;SDS011;37112;45.892;-123.962;2023-12-20T01:15:44;25.60;;;4.70;;
51066;SDS011;37112;45.892;-123.962;2023-12-20T01:18:15;25.00;;;5.00;;
51066;SDS011;37112;45.892;-123.962;2023-12-20T01:20:45;23.20;;;4.10;;
51066;SDS011;37112;45.892;-123.962;2023-12-20T01:23:15;24.80;;;4.40;;
51066;SDS011;37112;45.892;-123.962;2023-12-20T01:25:46;19.80;;;5.20;;
51066;SDS011;37112;45.892;-123.962;2023-12-20T01:28:16;18.70;;;4.10;;
51066;SDS011;37112;45.892;-123.962;2023-12-20T01:30:46;19.80;;;3.30;;
51066;SDS011;37112;45.892;-123.962;2023-12-20T01:33:17;19.70;;;3.40;;
51066;SDS011;37112;45.892;-123.962;2023-12-20T01:35:47;16.70;;;3.20;;
51066;SDS011;37112;45.892;-123.962;2023-12-20T01:38:17;20.00;;;4.90;;
51066;SDS011;37112;45.892;-123.962;2023-12-20T01:40:48;16.40;;;2.90;;
51066;SDS011;37112;45.892;-123.962;2023-12-20T01:43:18;13.50;;;3.30;;
51066;SDS011;37112;45.892;-123.962;2023-12-20T01:45:51;13.70;;;2.80;;
51066;SDS011;37112;45.892;-123.962;2023-12-20T01:48:23;13.60;;;3.60;;
51066;SDS011;37112;45.892;-123.962;2023-12-20T01:50:44;15.90;;;3.10;;
51066;SDS011;37112;45.892;-123.962;2023-12-20T01:53:15;11.00;;;1.80;;
51066;SDS011;37112;45.892;-123.962;2023-12-20T01:55:47;12.00;;;2.60;;
51066;SDS011;37112;45.892;-123.962;2023-12-20T01:58:21;18.10;;;2.60;;
51066;SDS011;37112;45.892;-123.962;2023-12-20T02:00:52;8.90;;;2.70;;
51066;SDS011;37112;45.892;-123.962;2023-12-20T02:03:23;10.70;;;2.20;;
51066;SDS011;37112;45.892;-123.962;2023-12-20T02:05:54;9.90;;;3.00;;
51066;SDS011;37112;45.892;-123.962;2023-12-20T02:08:25;11.00;;;2.30;;
51066;SDS011;37112;45.892;-123.962;2023-12-20T02:10:45;8.80;;;1.90;;
51066;SDS011;37112;45.892;-123.962;2023-12-20T02:13:15;16.80;;;2.00;;
51066;SDS011;37112;45.892;-123.962;2023-12-20T02:15:45;7.70;;;1.40;;
51066;SDS011;37112;45.892;-123.962;2023-12-20T02:18:15;5.90;;;1.20;;
51066;SDS011;37112;45.892;-123.962;2023-12-20T02:20:46;7.90;;;1.00;;
51066;SDS011;37112;45.892;-123.962;2023-12-20T02:23:05;4.00;;;0.70;;
51066;SDS011;37112;45.892;-123.962;2023-12-20T02:25:36;3.20;;;0.80;;
51066;SDS011;37112;45.892;-123.962;2023-12-20T02:28:06;2.40;;;0.60;;
51066;SDS011;37112;45.892;-123.962;2023-12-20T02:30:36;2.00;;;0.30;;
51066;SDS011;37112;45.892;-123.962;2023-12-20T02:33:08;1.00;;;0.90;;
51066;SDS011;37112;45.892;-123.962;2023-12-20T02:35:42;0.90;;;0.70;;
51066;SDS011;37112;45.892;-123.962;2023-12-20T02:38:12;0.80;;;0.30;;
51066;SDS011;37112;45.892;-123.962;2023-12-20T02:40:42;0.60;;;0.30;;
51066;SDS011;37112;45.892;-123.962;2023-12-20T02:43:14;1.80;;;0.30;;
51066;SDS011;37112;45.892;-123.962;2023-12-20T02:45:45;1.30;;;0.20;;
51066;SDS011;37112;45.892;-123.962;2023-12-20T02:48:15;0.50;;;0.30;;
51066;SDS011;37112;45.892;-123.962;2023-12-20T02:50:46;0.60;;;0.30;;
51066;SDS011;37112;45.892;-123.962;2023-12-20T02:53:16;0.80;;;0.40;;
51066;SDS011;37112;45.892;-123.962;2023-12-20T02:55:46;0.60;;;0.50;;
51066;SDS011;37112;45.892;-123.962;2023-12-20T02:58:17;3.10;;;0.50;;
51066;SDS011;37112;45.892;-123.962;2023-12-20T03:00:48;1.80;;;0.60;;
51066;SDS011;37112;45.892;-123.962;2023-12-20T03:03:19;0.90;;;0.70;;
51066;SDS011;37112;45.892;-123.962;2023-12-20T03:05:49;0.50;;;0.50;;
51066;SDS011;37112;45.892;-123.962;2023-12-20T03:08:19;0.70;;;0.40;;
51066;SDS011;37112;45.892;-123.962;2023-12-20T03:10:53;0.30;;;0.30;;
51066;SDS011;37112;45.892;-123.962;2023-12-20T03:13:23;1.40;;;0.50;;
51066;SDS011;37112;45.892;-123.962;2023-12-20T03:15:53;1.90;;;0.50;;
51066;SDS011;37112;45.892;-123.962;2023-12-20T03:18:24;0.90;;;0.60;;
51066;SDS011;37112;45.892;-123.962;2023-12-20T03:20:55;8.30;;;0.60;;
51066;SDS011;37112;45.892;-123.962;2023-12-20T03:23:45;0.70;;;0.40;;
51066;SDS011;37112;45.892;-123.962;2023-12-20T03:26:18;2.30;;;0.50;;
51066;SDS011;37112;45.892;-123.962;2023-12-20T03:28:49;1.00;;;0.50;;
51066;SDS011;37112;45.892;-123.962;2023-12-20T03:31:20;1.10;;;0.60;;
51066;SDS011;37112;45.892;-123.962;2023-12-20T03:33:38;2.70;;;1.10;;
51066;SDS011;37112;45.892;-123.962;2023-12-20T03:36:09;1.10;;;0.60;;
51066;SDS011;37112;45.892;-123.962;2023-12-20T03:38:39;1.80;;;0.70;;
51066;SDS011;37112;45.892;-123.962;2023-12-20T03:41:09;2.30;;;0.50;;
51066;SDS011;37112;45.892;-123.962;2023-12-20T03:43:40;0.40;;;0.40;;
51066;SDS011;37112;45.892;-123.962;2023-12-20T03:46:10;2.00;;;0.30;;
51066;SDS011;37112;45.892;-123.962;2023-12-20T03:48:41;1.40;;;0.30;;
51066;SDS011;37112;45.892;-123.962;2023-12-20T03:51:11;1.10;;;0.30;;
51066;SDS011;37112;45.892;-123.962;2023-12-20T03:53:42;0.30;;;0.30;;
51066;SDS011;37112;45.892;-123.962;2023-12-20T03:56:12;2.90;;;0.30;;
51066;SDS011;37112;45.892;-123.962;2023-12-20T03:58:42;0.30;;;0.30;;
51066;SDS011;37112;45.892;-123.962;2023-12-20T04:01:12;2.80;;;0.30;;
51066;SDS011;37112;45.892;-123.962;2023-12-20T04:03:43;0.30;;;0.30;;
51066;SDS011;37112;45.892;-123.962;2023-12-20T04:06:17;0.40;;;0.30;;
51066;SDS011;37112;45.892;-123.962;2023-12-20T04:08:37;1.10;;;0.70;;
51066;SDS011;37112;45.892;-123.962;2023-12-20T04:11:07;1.40;;;0.50;;
51066;SDS011;37112;45.892;-123.962;2023-12-20T04:13:37;1.70;;;0.40;;
51066;SDS011;37112;45.892;-123.962;2023-12-20T04:16:08;0.40;;;0.40;;
51066;SDS011;37112;45.892;-123.962;2023-12-20T04:18:38;0.40;;;0.40;;
51066;SDS011;37112;45.892;-123.962;2023-12-20T04:20:58;0.30;;;0.30;;
51066;SDS011;37112;45.892;-123.962;2023-12-20T04:23:29;0.20;;;0.20;;
51066;SDS011;37112;45.892;-123.962;2023-12-20T04:25:59;1.10;;;0.30;;
51066;SDS011;37112;45.892;-123.962;2023-12-20T04:28:30;1.50;;;0.20;;
51066;SDS011;37112;45.892;-123.962;2023-12-20T04:31:00;1.40;;;0.20;;
51066;SDS011;37112;45.892;-123.962;2023-12-20T04:33:30;0.30;;;0.30;;
51066;SDS011;37112;45.892;-123.962;2023-12-20T04:36:01;1.00;;;0.30;;
51066;SDS011;37112;45.892;-123.962;2023-12-20T04:38:32;0.40;;;0.30;;
51066;SDS011;37112;45.892;-123.962;2023-12-20T04:41:02;0.30;;;0.30;;
51066;SDS011;37112;45.892;-123.962;2023-12-20T04:43:33;1.50;;;0.40;;
51066;SDS011;37112;45.892;-123.962;2023-12-20T04:46:03;3.70;;;0.50;;
51066;SDS011;37112;45.892;-123.962;2023-12-20T04:48:33;0.40;;;0.20;;
51066;SDS011;37112;45.892;-123.962;2023-12-20T04:51:14;0.40;;;0.30;;
51066;SDS011;37112;45.892;-123.962;2023-12-20T04:53:37;0.40;;;0.30;;
51066;SDS011;37112;45.892;-123.962;2023-12-20T04:56:07;0.30;;;0.30;;
51066;SDS011;37112;45.892;-123.962;2023-12-20T04:58:37;0.50;;;0.30;;
51066;SDS011;37112;45.892;-123.962;2023-12-20T05:01:08;3.10;;;0.60;;
51066;SDS011;37112;45.892;-123.962;2023-12-20T05:03:39;0.30;;;0.30;;
51066;SDS011;37112;45.892;-123.962;2023-12-20T05:06:09;1.10;;;0.30;;
51066;SDS011;37112;45.892;-123.962;2023-12-20T05:08:41;0.30;;;0.30;;
51066;SDS011;37112;45.892;-123.962;2023-12-20T05:11:11;0.30;;;0.30;;
51066;SDS011;37112;45.892;-123.962;2023-12-20T05:13:30;2.10;;;0.40;;
51066;SDS011;37112;45.892;-123.962;2023-12-20T05:16:13;0.30;;;0.30;;
51066;SDS011;37112;45.892;-123.962;2023-12-20T05:18:43;0.30;;;0.30;;
51066;SDS011;37112;45.892;-123.962;2023-12-20T05:21:08;0.40;;;0.40;;
51066;SDS011;37112;45.892;-123.962;2023-12-20T05:23:38;0.30;;;0.30;;
51066;SDS011;37112;45.892;-123.962;2023-12-20T05:26:08;3.00;;;0.40;;
51066;SDS011;37112;45.892;-123.962;2023-12-20T05:28:38;0.80;;;0.40;;
51066;SDS011;37112;45.892;-123.962;2023-12-20T05:30:57;0.40;;;0.30;;
51066;SDS011;37112;45.892;-123.962;2023-12-20T05:33:28;0.40;;;0.40;;
51066;SDS011;37112;45.892;-123.962;2023-12-20T05:35:58;0.30;;;0.30;;
51066;SDS011;37112;45.892;-123.962;2023-12-20T05:38:29;0.20;;;0.20;;
51066;SDS011;37112;45.892;-123.962;2023-12-20T05:40:59;0.30;;;0.30;;
51066;SDS011;37112;45.892;-123.962;2023-12-20T05:43:29;0.80;;;0.40;;
51066;SDS011;37112;45.892;-123.962;2023-12-20T05:46:00;2.60;;;0.50;;
51066;SDS011;37112;45.892;-123.962;2023-12-20T05:48:20;0.50;;;0.40;;
51066;SDS011;37112;45.892;-123.962;2023-12-20T05:50:50;0.40;;;0.40;;
51066;SDS011;37112;45.892;-123.962;2023-12-20T05:53:20;1.40;;;0.40;;
51066;SDS011;37112;45.892;-123.962;2023-12-20T05:55:50;0.40;;;0.40;;
51066;SDS011;37112;45.892;-123.962;2023-12-20T05:58:20;0.40;;;0.40;;
51066;SDS011;37112;45.892;-123.962;2023-12-20T06:00:51;0.60;;;0.30;;
51066;SDS011;37112;45.892;-123.962;2023-12-20T06:03:21;0.50;;;0.40;;
51066;SDS011;37112;45.892;-123.962;2023-12-20T06:05:51;0.30;;;0.30;;
51066;SDS011;37112;45.892;-123.962;2023-12-20T06:08:38;2.90;;;0.60;;
51066;SDS011;37112;45.892;-123.962;2023-12-20T06:11:09;3.40;;;0.60;;
51066;SDS011;37112;45.892;-123.962;2023-12-20T06:13:40;3.80;;;0.50;;
51066;SDS011;37112;45.892;-123.962;2023-12-20T06:16:10;0.30;;;0.30;;
51066;SDS011;37112;45.892;-123.962;2023-12-20T06:18:41;1.10;;;1.00;;
51066;SDS011;37112;45.892;-123.962;2023-12-20T06:21:11;0.40;;;0.40;;
51066;SDS011;37112;45.892;-123.962;2023-12-20T06:23:42;0.40;;;0.40;;
51066;SDS011;37112;45.892;-123.962;2023-12-20T06:26:12;0.60;;;0.60;;
51066;SDS011;37112;45.892;-123.962;2023-12-20T06:28:42;0.40;;;0.40;;
51066;SDS011;37112;45.892;-123.962;2023-12-20T06:31:12;0.40;;;0.40;;
51066;SDS011;37112;45.892;-123.962;2023-12-20T06:33:42;1.40;;;0.40;;
51066;SDS011;37112;45.892;-123.962;2023-12-20T06:36:13;0.30;;;0.30;;
51066;SDS011;37112;45.892;-123.962;2023-12-20T06:38:44;1.60;;;0.50;;
51066;SDS011;37112;45.892;-123.962;2023-12-20T06:41:14;0.30;;;0.30;;
51066;SDS011;37112;45.892;-123.962;2023-12-20T06:43:45;0.40;;;0.40;;
51066;SDS011;37112;45.892;-123.962;2023-12-20T06:46:15;0.80;;;0.50;;
51066;SDS011;37112;45.892;-123.962;2023-12-20T06:48:46;1.20;;;0.40;;
51066;SDS011;37112;45.892;-123.962;2023-12-20T06:51:17;0.50;;;0.30;;
51066;SDS011;37112;45.892;-123.962;2023-12-20T06:53:51;1.90;;;0.50;;
51066;SDS011;37112;45.892;-123.962;2023-12-20T06:56:22;0.80;;;0.40;;
51066;SDS011;37112;45.892;-123.962;2023-12-20T06:58:52;0.90;;;0.40;;
51066;SDS011;37112;45.892;-123.962;2023-12-20T07:01:22;0.40;;;0.40;;
51066;SDS011;37112;45.892;-123.962;2023-12-20T07:03:53;1.20;;;0.50;;
51066;SDS011;37112;45.892;-123.962;2023-12-20T07:06:23;7.00;;;0.70;;
51066;SDS011;37112;45.892;-123.962;2023-12-20T07:08:54;0.40;;;0.40;;
51066;SDS011;37112;45.892;-123.962;2023-12-20T07:11:24;0.50;;;0.50;;
51066;SDS011;37112;45.892;-123.962;2023-12-20T07:13:42;0.90;;;0.30;;
51066;SDS011;37112;45.892;-123.962;2023-12-20T07:16:03;1.50;;;0.30;;
51066;SDS011;37112;45.892;-123.962;2023-12-20T07:18:34;1.70;;;0.40;;
51066;SDS011;37112;45.892;-123.962;2023-12-20T07:21:04;2.90;;;0.60;;
51066;SDS011;37112;45.892;-123.962;2023-12-20T07:23:35;1.80;;;0.90;;
51066;SDS011;37112;45.892;-123.962;2023-12-20T07:26:05;2.20;;;0.80;;
51066;SDS011;37112;45.892;-123.962;2023-12-20T07:28:35;1.80;;;0.60;;
51066;SDS011;37112;45.892;-123.962;2023-12-20T07:31:06;7.50;;;3.50;;
51066;SDS011;37112;45.892;-123.962;2023-12-20T07:33:36;4.20;;;2.30;;
51066;SDS011;37112;45.892;-123.962;2023-12-20T07:36:07;2.80;;;1.50;;
51066;SDS011;37112;45.892;-123.962;2023-12-20T07:38:38;1.40;;;0.90;;
51066;SDS011;37112;45.892;-123.962;2023-12-20T07:41:10;1.30;;;0.70;;
51066;SDS011;37112;45.892;-123.962;2023-12-20T07:43:42;0.90;;;0.50;;
51066;SDS011;37112;45.892;-123.962;2023-12-20T07:46:12;0.50;;;0.40;;
51066;SDS011;37112;45.892;-123.962;2023-12-20T07:48:42;1.20;;;1.10;;
51066;SDS011;37112;45.892;-123.962;2023-12-20T07:51:13;0.60;;;0.40;;
51066;SDS011;37112;45.892;-123.962;2023-12-20T07:53:43;0.30;;;0.30;;
51066;SDS011;37112;45.892;-123.962;2023-12-20T07:56:17;0.70;;;0.40;;
51066;SDS011;37112;45.892;-123.962;2023-12-20T07:58:47;0.50;;;0.50;;
51066;SDS011;37112;45.892;-123.962;2023-12-20T08:01:19;0.60;;;0.40;;
51066;SDS011;37112;45.892;-123.962;2023-12-20T08:03:49;0.30;;;0.30;;
51066;SDS011;37112;45.892;-123.962;2023-12-20T08:06:40;1.20;;;0.40;;
51066;SDS011;37112;45.892;-123.962;2023-12-20T08:08:58;0.50;;;0.40;;
51066;SDS011;37112;45.892;-123.962;2023-12-20T08:11:32;1.30;;;0.40;;
51066;SDS011;37112;45.892;-123.962;2023-12-20T08:13:50;0.40;;;0.40;;
51066;SDS011;37112;45.892;-123.962;2023-12-20T08:16:20;0.40;;;0.40;;
51066;SDS011;37112;45.892;-123.962;2023-12-20T08:18:51;0.40;;;0.40;;
51066;SDS011;37112;45.892;-123.962;2023-12-20T08:21:21;2.30;;;0.40;;
51066;SDS011;37112;45.892;-123.962;2023-12-20T08:23:40;0.40;;;0.40;;
51066;SDS011;37112;45.892;-123.962;2023-12-20T08:25:59;0.40;;;0.40;;
51066;SDS011;37112;45.892;-123.962;2023-12-20T08:28:33;0.40;;;0.40;;
51066;SDS011;37112;45.892;-123.962;2023-12-20T08:31:04;0.40;;;0.40;;
51066;SDS011;37112;45.892;-123.962;2023-12-20T08:33:41;1.00;;;0.40;;
51066;SDS011;37112;45.892;-123.962;2023-12-20T08:36:11;0.40;;;0.40;;
51066;SDS011;37112;45.892;-123.962;2023-12-20T08:38:43;0.40;;;0.40;;
51066;SDS011;37112;45.892;-123.962;2023-12-20T08:41:14;0.40;;;0.40;;
51066;SDS011;37112;45.892;-123.962;2023-12-20T08:43:45;0.50;;;0.50;;
51066;SDS011;37112;45.892;-123.962;2023-12-20T08:46:04;0.40;;;0.40;;
51066;SDS011;37112;45.892;-123.962;2023-12-20T08:48:35;0.30;;;0.30;;
51066;SDS011;37112;45.892;-123.962;2023-12-20T08:51:06;0.70;;;0.50;;
51066;SDS011;37112;45.892;-123.962;2023-12-20T08:53:37;0.40;;;0.40;;
51066;SDS011;37112;45.892;-123.962;2023-12-20T08:56:07;0.50;;;0.40;;
51066;SDS011;37112;45.892;-123.962;2023-12-20T08:58:38;2.70;;;0.40;;
51066;SDS011;37112;45.892;-123.962;2023-12-20T09:01:08;0.50;;;0.40;;
51066;SDS011;37112;45.892;-123.962;2023-12-20T09:03:38;0.30;;;0.30;;
51066;SDS011;37112;45.892;-123.962;2023-12-20T09:06:09;0.60;;;0.40;;
51066;SDS011;37112;45.892;-123.962;2023-12-20T09:08:40;2.70;;;0.30;;
51066;SDS011;37112;45.892;-123.962;2023-12-20T09:11:10;0.60;;;0.40;;
51066;SDS011;37112;45.892;-123.962;2023-12-20T09:13:41;0.30;;;0.30;;
51066;SDS011;37112;45.892;-123.962;2023-12-20T09:16:11;1.50;;;0.40;;
51066;SDS011;37112;45.892;-123.962;2023-12-20T09:18:42;0.30;;;0.30;;
51066;SDS011;37112;45.892;-123.962;2023-12-20T09:21:12;3.40;;;0.40;;
51066;SDS011;37112;45.892;-123.962;2023-12-20T09:23:42;0.60;;;0.40;;
51066;SDS011;37112;45.892;-123.962;2023-12-20T09:26:12;1.80;;;0.40;;
51066;SDS011;37112;45.892;-123.962;2023-12-20T09:28:43;0.40;;;0.30;;
51066;SDS011;37112;45.892;-123.962;2023-12-20T09:31:13;0.60;;;0.50;;
51066;SDS011;37112;45.892;-123.962;2023-12-20T09:33:44;1.20;;;0.30;;
51066;SDS011;37112;45.892;-123.962;2023-12-20T09:36:14;0.40;;;0.40;;
51066;SDS011;37112;45.892;-123.962;2023-12-20T09:38:44;0.60;;;0.30;;
51066;SDS011;37112;45.892;-123.962;2023-12-20T09:41:14;0.40;;;0.40;;
51066;SDS011;37112;45.892;-123.962;2023-12-20T09:43:48;0.70;;;0.60;;
51066;SDS011;37112;45.892;-123.962;2023-12-20T09:46:20;0.60;;;0.40;;
51066;SDS011;37112;45.892;-123.962;2023-12-20T09:48:55;0.30;;;0.30;;
51066;SDS011;37112;45.892;-123.962;2023-12-20T09:51:27;1.40;;;0.40;;
51066;SDS011;37112;45.892;-123.962;2023-12-20T09:53:59;1.60;;;0.40;;
51066;SDS011;37112;45.892;-123.962;2023-12-20T09:56:30;0.30;;;0.30;;
51066;SDS011;37112;45.892;-123.962;2023-12-20T09:59:01;1.80;;;0.40;;
51066;SDS011;37112;45.892;-123.962;2023-12-20T10:01:31;2.40;;;0.40;;
51066;SDS011;37112;45.892;-123.962;2023-12-20T10:03:51;2.10;;;0.40;;
51066;SDS011;37112;45.892;-123.962;2023-12-20T10:06:23;4.40;;;0.40;;
51066;SDS011;37112;45.892;-123.962;2023-12-20T10:08:53;0.30;;;0.30;;
51066;SDS011;37112;45.892;-123.962;2023-12-20T10:11:23;1.80;;;0.30;;
51066;SDS011;37112;45.892;-123.962;2023-12-20T10:13:58;3.50;;;1.40;;
51066;SDS011;37112;45.892;-123.962;2023-12-20T10:16:29;0.40;;;0.40;;
51066;SDS011;37112;45.892;-123.962;2023-12-20T10:19:00;2.20;;;0.40;;
51066;SDS011;37112;45.892;-123.962;2023-12-20T10:21:30;0.80;;;0.30;;
51066;SDS011;37112;45.892;-123.962;2023-12-20T10:24:00;1.10;;;0.50;;
51066;SDS011;37112;45.892;-123.962;2023-12-20T10:26:31;0.40;;;0.30;;
51066;SDS011;37112;45.892;-123.962;2023-12-20T10:29:02;1.80;;;0.40;;
51066;SDS011;37112;45.892;-123.962;2023-12-20T10:31:32;0.30;;;0.30;;
51066;SDS011;37112;45.892;-123.962;2023-12-20T10:34:04;1.00;;;0.40;;
51066;SDS011;37112;45.892;-123.962;2023-12-20T10:36:35;0.90;;;0.40;;
51066;SDS011;37112;45.892;-123.962;2023-12-20T10:39:05;0.80;;;0.40;;
51066;SDS011;37112;45.892;-123.962;2023-12-20T10:41:26;0.40;;;0.30;;
51066;SDS011;37112;45.892;-123.962;2023-12-20T10:43:58;0.60;;;0.40;;
51066;SDS011;37112;45.892;-123.962;2023-12-20T10:46:29;0.60;;;0.50;;
51066;SDS011;37112;45.892;-123.962;2023-12-20T10:49:00;0.30;;;0.30;;
51066;SDS011;37112;45.892;-123.962;2023-12-20T10:51:32;0.40;;;0.40;;
51066;SDS011;37112;45.892;-123.962;2023-12-20T10:54:05;0.70;;;0.50;;
51066;SDS011;37112;45.892;-123.962;2023-12-20T10:56:35;4.20;;;0.40;;
51066;SDS011;37112;45.892;-123.962;2023-12-20T10:59:07;1.40;;;0.50;;
51066;SDS011;37112;45.892;-123.962;2023-12-20T11:01:39;0.90;;;0.40;;
51066;SDS011;37112;45.892;-123.962;2023-12-20T11:04:10;1.90;;;0.50;;
51066;SDS011;37112;45.892;-123.962;2023-12-20T11:06:48;0.70;;;0.40;;
51066;SDS011;37112;45.892;-123.962;2023-12-20T11:09:24;0.50;;;0.50;;
51066;SDS011;37112;45.892;-123.962;2023-12-20T11:12:02;0.60;;;0.40;;
51066;SDS011;37112;45.892;-123.962;2023-12-20T11:14:39;1.70;;;0.40;;
51066;SDS011;37112;45.892;-123.962;2023-12-20T11:17:14;0.50;;;0.40;;
51066;SDS011;37112;45.892;-123.962;2023-12-20T11:22:38;0.70;;;0.30;;
51066;SDS011;37112;45.892;-123.962;2023-12-20T11:25:20;0.50;;;0.30;;
51066;SDS011;37112;45.892;-123.962;2023-12-20T11:30:43;0.90;;;0.30;;
51066;SDS011;37112;45.892;-123.962;2023-12-20T11:33:17;0.40;;;0.40;;
51066;SDS011;37112;45.892;-123.962;2023-12-20T11:35:56;0.50;;;0.50;;
51066;SDS011;37112;45.892;-123.962;2023-12-20T11:40:47;0.30;;;0.30;;
51066;SDS011;37112;45.892;-123.962;2023-12-20T11:43:30;1.80;;;0.40;;
51066;SDS011;37112;45.892;-123.962;2023-12-20T11:46:06;0.30;;;0.30;;
51066;SDS011;37112;45.892;-123.962;2023-12-20T11:48:37;0.30;;;0.30;;
51066;SDS011;37112;45.892;-123.962;2023-12-20T11:51:12;0.40;;;0.40;;
51066;SDS011;37112;45.892;-123.962;2023-12-20T11:53:31;0.40;;;0.40;;
51066;SDS011;37112;45.892;-123.962;2023-12-20T11:56:03;0.50;;;0.40;;
51066;SDS011;37112;45.892;-123.962;2023-12-20T11:58:22;0.40;;;0.40;;
51066;SDS011;37112;45.892;-123.962;2023-12-20T12:00:53;3.80;;;0.40;;
51066;SDS011;37112;45.892;-123.962;2023-12-20T12:03:25;0.30;;;0.30;;
51066;SDS011;37112;45.892;-123.962;2023-12-20T12:05:55;0.30;;;0.30;;
51066;SDS011;37112;45.892;-123.962;2023-12-20T12:08:26;0.40;;;0.40;;
51066;SDS011;37112;45.892;-123.962;2023-12-20T12:10:57;1.10;;;0.60;;
51066;SDS011;37112;45.892;-123.962;2023-12-20T12:13:27;2.20;;;0.40;;
51066;SDS011;37112;45.892;-123.962;2023-12-20T12:15:58;1.10;;;1.10;;
51066;SDS011;37112;45.892;-123.962;2023-12-20T12:18:29;0.40;;;0.40;;
51066;SDS011;37112;45.892;-123.962;2023-12-20T12:21:02;0.30;;;0.30;;
51066;SDS011;37112;45.892;-123.962;2023-12-20T12:23:40;2.80;;;0.50;;
51066;SDS011;37112;45.892;-123.962;2023-12-20T12:26:10;2.00;;;0.30;;
51066;SDS011;37112;45.892;-123.962;2023-12-20T12:28:41;2.70;;;0.40;;
51066;SDS011;37112;45.892;-123.962;2023-12-20T12:31:14;4.30;;;0.50;;
51066;SDS011;37112;45.892;-123.962;2023-12-20T12:33:33;0.40;;;0.40;;
51066;SDS011;37112;45.892;-123.962;2023-12-20T12:36:04;0.30;;;0.30;;
51066;SDS011;37112;45.892;-123.962;2023-12-20T12:38:35;2.30;;;0.40;;
51066;SDS011;37112;45.892;-123.962;2023-12-20T12:40:54;2.20;;;0.40;;
51066;SDS011;37112;45.892;-123.962;2023-12-20T12:43:25;0.40;;;0.40;;
51066;SDS011;37112;45.892;-123.962;2023-12-20T12:45:56;3.60;;;0.40;;
51066;SDS011;37112;45.892;-123.962;2023-12-20T12:48:27;1.40;;;0.40;;
51066;SDS011;37112;45.892;-123.962;2023-12-20T12:50:58;1.70;;;0.40;;
51066;SDS011;37112;45.892;-123.962;2023-12-20T12:53:29;1.90;;;0.40;;
51066;SDS011;37112;45.892;-123.962;2023-12-20T12:55:59;0.80;;;0.40;;
51066;SDS011;37112;45.892;-123.962;2023-12-20T12:58:30;2.00;;;0.50;;
51066;SDS011;37112;45.892;-123.962;2023-12-20T13:01:00;2.20;;;0.40;;
51066;SDS011;37112;45.892;-123.962;2023-12-20T13:03:31;2.10;;;0.40;;
51066;SDS011;37112;45.892;-123.962;2023-12-20T13:06:02;0.40;;;0.40;;
51066;SDS011;37112;45.892;-123.962;2023-12-20T13:08:35;0.30;;;0.30;;
51066;SDS011;37112;45.892;-123.962;2023-12-20T13:11:05;0.30;;;0.30;;
51066;SDS011;37112;45.892;-123.962;2023-12-20T13:13:24;0.40;;;0.40;;
51066;SDS011;37112;45.892;-123.962;2023-12-20T13:15:54;2.80;;;1.40;;
51066;SDS011;37112;45.892;-123.962;2023-12-20T13:18:24;0.40;;;0.40;;
51066;SDS011;37112;45.892;-123.962;2023-12-20T13:20:55;1.60;;;0.40;;
51066;SDS011;37112;45.892;-123.962;2023-12-20T13:23:17;0.60;;;0.40;;
51066;SDS011;37112;45.892;-123.962;2023-12-20T13:25:48;0.30;;;0.30;;
51066;SDS011;37112;45.892;-123.962;2023-12-20T13:28:18;3.20;;;0.90;;
51066;SDS011;37112;45.892;-123.962;2023-12-20T13:30:48;1.00;;;0.60;;
51066;SDS011;37112;45.892;-123.962;2023-12-20T13:33:07;0.90;;;0.50;;
51066;SDS011;37112;45.892;-123.962;2023-12-20T13:35:39;2.40;;;0.50;;
51066;SDS011;37112;45.892;-123.962;2023-12-20T13:38:09;2.50;;;0.50;;
51066;SDS011;37112;45.892;-123.962;2023-12-20T13:40:40;0.40;;;0.40;;
51066;SDS011;37112;45.892;-123.962;2023-12-20T13:43:10;1.30;;;0.50;;
51066;SDS011;37112;45.892;-123.962;2023-12-20T13:45:42;0.40;;;0.40;;
51066;SDS011;37112;45.892;-123.962;2023-12-20T13:48:13;1.20;;;0.50;;
51066;SDS011;37112;45.892;-123.962;2023-12-20T13:50:43;0.50;;;0.40;;
51066;SDS011;37112;45.892;-123.962;2023-12-20T13:53:13;0.90;;;0.40;;
51066;SDS011;37112;45.892;-123.962;2023-12-20T13:55:43;3.50;;;0.40;;
51066;SDS011;37112;45.892;-123.962;2023-12-20T13:58:14;0.30;;;0.30;;
51066;SDS011;37112;45.892;-123.962;2023-12-20T14:00:44;1.40;;;0.30;;
51066;SDS011;37112;45.892;-123.962;2023-12-20T14:03:15;1.80;;;0.30;;
51066;SDS011;37112;45.892;-123.962;2023-12-20T14:05:45;0.40;;;0.40;;
51066;SDS011;37112;45.892;-123.962;2023-12-20T14:08:15;1.80;;;1.10;;
51066;SDS011;37112;45.892;-123.962;2023-12-20T14:10:46;1.20;;;0.40;;
51066;SDS011;37112;45.892;-123.962;2023-12-20T14:13:16;0.80;;;0.40;;
51066;SDS011;37112;45.892;-123.962;2023-12-20T14:15:47;0.40;;;0.40;;
51066;SDS011;37112;45.892;-123.962;2023-12-20T14:18:17;1.40;;;0.70;;
51066;SDS011;37112;45.892;-123.962;2023-12-20T14:20:47;0.70;;;0.50;;
51066;SDS011;37112;45.892;-123.962;2023-12-20T14:23:08;0.30;;;0.30;;
51066;SDS011;37112;45.892;-123.962;2023-12-20T14:25:40;0.60;;;0.30;;
51066;SDS011;37112;45.892;-123.962;2023-12-20T14:28:17;0.40;;;0.40;;
51066;SDS011;37112;45.892;-123.962;2023-12-20T14:30:47;0.40;;;0.40;;